Time,TemperatureF,DewpointF,PressureIn,WindDirection,WindDirectionDegrees,WindSpeedMPH,WindSpeedGustMPH,Humidity,HourlyPrecipIn,Conditions,Clouds,dailyrainin,SoftwareType,DateUTC
2013-01-28 10:12:00,29.0,26.0,30.14,West,273,12.0,17.0,88,0.00,,,0.00,weatherlink.com 1.10,2013-01-28 18:12:00,
2013-01-28 10:17:00,29.0,27.0,30.15,West,273,3.0,17.0,90,0.00,,,0.00,weatherlink.com 1.10,2013-01-28 18:17:00,
2013-01-28 10:32:00,29.3,27.0,30.15,West,273,10.0,15.0,89,0.00,,,0.00,weatherlink.com 1.10,2013-01-28 18:32:00,
2013-01-28 10:47:00,30.5,28.0,30.15,West,273,4.0,12.0,90,0.00,,,0.00,weatherlink.com 1.10,2013-01-28 18:47:00,
2013-01-28 11:02:00,32.1,27.0,30.15,West,265,6.0,17.0,82,0.00,,,0.00,weatherlink.com 1.10,2013-01-28 19:02:00,
2013-01-28 11:17:00,29.8,27.0,30.15,WNW,298,12.0,16.0,88,0.00,,,0.00,weatherlink.com 1.10,2013-01-28 19:17:00,
2013-01-28 11:32:00,29.7,28.0,30.15,WNW,298,13.0,15.0,92,0.00,,,0.00,weatherlink.com 1.10,2013-01-28 19:32:00,
2013-01-28 11:47:00,29.9,27.0,30.15,WNW,297,6.0,18.0,88,0.00,,,0.00,weatherlink.com 1.10,2013-01-28 19:47:00,
2013-01-28 12:02:00,32.6,29.0,30.14,West,268,12.0,17.0,85,0.00,,,0.00,weatherlink.com 1.10,2013-01-28 20:02:00,
2013-01-28 12:17:00,32.0,27.0,30.13,West,263,10.0,17.0,81,0.00,,,0.00,weatherlink.com 1.10,2013-01-28 20:17:00,
2013-01-28 12:32:00,32.2,27.0,30.13,WNW,291,8.0,25.0,80,0.00,,,0.00,weatherlink.com 1.10,2013-01-28 20:32:00,
2013-01-28 12:47:00,33.6,26.0,30.12,West,281,11.0,23.0,73,0.00,,,0.00,weatherlink.com 1.10,2013-01-28 20:47:00,
2013-01-28 13:02:00,33.3,22.0,30.14,West,280,11.0,22.0,64,0.00,,,0.00,weatherlink.com 1.10,2013-01-28 21:02:00,
2013-01-28 13:17:00,31.9,23.0,30.14,West,276,7.0,20.0,71,0.00,,,0.00,weatherlink.com 1.10,2013-01-28 21:17:00,
2013-01-28 13:32:00,33.2,24.0,30.14,West,268,5.0,21.0,70,0.01,,,0.01,weatherlink.com 1.10,2013-01-28 21:32:00,
2013-01-28 13:47:00,35.0,27.0,30.14,West,273,8.0,21.0,72,0.01,,,0.01,weatherlink.com 1.10,2013-01-28 21:47:00,
2013-01-28 14:02:00,32.1,26.0,30.15,WNW,302,7.0,19.0,77,0.01,,,0.01,weatherlink.com 1.10,2013-01-28 22:02:00,
2013-01-28 14:17:00,31.2,25.0,30.14,West,264,12.0,17.0,79,0.02,,,0.02,weatherlink.com 1.10,2013-01-28 22:17:00,
2013-01-28 14:32:00,32.1,26.0,30.14,WNW,294,12.0,20.0,78,0.01,,,0.02,weatherlink.com 1.10,2013-01-28 22:32:00,
2013-01-28 14:47:00,32.4,24.0,30.14,WNW,294,10.0,21.0,70,0.01,,,0.02,weatherlink.com 1.10,2013-01-28 22:47:00,
2013-01-28 15:02:00,31.5,24.0,30.15,West,271,8.0,17.0,74,0.01,,,0.02,weatherlink.com 1.10,2013-01-28 23:02:00,
2013-01-28 15:17:00,33.2,26.0,30.15,West,270,17.0,17.0,75,0.00,,,0.02,weatherlink.com 1.10,2013-01-28 23:17:00,
2013-01-28 15:32:00,32.4,26.0,30.16,WNW,291,13.0,16.0,77,0.00,,,0.02,weatherlink.com 1.10,2013-01-28 23:32:00,
2013-01-28 15:47:00,32.4,26.0,30.16,WSW,251,8.0,15.0,77,0.01,,,0.03,weatherlink.com 1.10,2013-01-28 23:47:00,
2013-01-28 16:02:00,31.5,25.0,30.16,West,263,7.0,15.0,77,0.01,,,0.03,weatherlink.com 1.10,2013-01-29 00:02:00,
2013-01-28 16:17:00,30.7,25.0,30.16,West,271,6.0,13.0,79,0.01,,,0.03,weatherlink.com 1.10,2013-01-29 00:17:00,
2013-01-28 16:32:00,30.7,26.0,30.17,West,281,6.0,13.0,81,0.01,,,0.03,weatherlink.com 1.10,2013-01-29 00:32:00,
2013-01-28 16:47:00,29.0,25.0,30.18,NW,309,2.0,8.0,83,0.00,,,0.03,weatherlink.com 1.10,2013-01-29 00:47:00,
2013-01-28 17:02:00,27.6,24.0,30.18,NW,315,3.0,12.0,87,0.00,,,0.03,weatherlink.com 1.10,2013-01-29 01:02:00,
2013-01-28 17:17:00,27.1,24.0,30.18,NW,315,4.0,14.0,88,0.00,,,0.03,weatherlink.com 1.10,2013-01-29 01:17:00,
2013-01-28 17:32:00,26.6,24.0,30.19,NW,325,7.0,10.0,90,0.00,,,0.03,weatherlink.com 1.10,2013-01-29 01:32:00,
2013-01-28 17:47:00,26.2,24.0,30.20,WNW,296,4.0,8.0,92,0.00,,,0.03,weatherlink.com 1.10,2013-01-29 01:47:00,
2013-01-28 18:02:00,26.3,25.0,30.21,NW,317,4.0,12.0,93,0.00,,,0.03,weatherlink.com 1.10,2013-01-29 02:02:00,
2013-01-28 18:17:00,26.5,25.0,30.21,West,270,4.0,11.0,93,0.00,,,0.03,weatherlink.com 1.10,2013-01-29 02:17:00,
2013-01-28 18:32:00,26.3,25.0,30.21,NW,311,5.0,11.0,93,0.00,,,0.03,weatherlink.com 1.10,2013-01-29 02:32:00,
2013-01-28 18:47:00,26.3,25.0,30.22,NW,319,1.0,11.0,94,0.00,,,0.03,weatherlink.com 1.10,2013-01-29 02:47:00,
2013-01-28 19:02:00,26.3,25.0,30.23,NW,311,2.0,13.0,94,0.00,,,0.03,weatherlink.com 1.10,2013-01-29 03:02:00,
2013-01-28 19:17:00,26.2,25.0,30.24,West,279,4.0,12.0,94,0.00,,,0.03,weatherlink.com 1.10,2013-01-29 03:17:00,
2013-01-28 19:32:00,26.0,25.0,30.24,WNW,285,9.0,9.0,94,0.00,,,0.03,weatherlink.com 1.10,2013-01-29 03:32:00,
2013-01-28 19:47:00,25.6,24.0,30.24,NW,316,2.0,8.0,94,0.00,,,0.03,weatherlink.com 1.10,2013-01-29 03:47:00,
2013-01-28 20:03:00,25.3,24.0,30.25,WNW,298,2.0,9.0,94,0.00,,,0.03,weatherlink.com 1.10,2013-01-29 04:03:00,
2013-01-28 20:18:00,25.1,24.0,30.24,NNW,336,5.0,8.0,94,0.00,,,0.03,weatherlink.com 1.10,2013-01-29 04:18:00,
2013-01-28 20:33:00,24.9,24.0,30.24,North,349,2.0,10.0,94,0.00,,,0.03,weatherlink.com 1.10,2013-01-29 04:33:00,
2013-01-28 20:48:00,24.9,23.0,30.25,NNW,341,2.0,9.0,93,0.00,,,0.03,weatherlink.com 1.10,2013-01-29 04:48:00,
2013-01-28 21:18:00,24.0,22.0,30.27,NNW,330,2.0,7.0,93,0.00,,,0.03,weatherlink.com 1.10,2013-01-29 05:18:00,
2013-01-28 21:33:00,23.9,23.0,30.27,NW,324,0.0,7.0,95,0.00,,,0.03,weatherlink.com 1.10,2013-01-29 05:33:00,
2013-01-28 21:48:00,23.3,22.0,30.27,NW,325,1.0,5.0,94,0.00,,,0.03,weatherlink.com 1.10,2013-01-29 05:48:00,
2013-01-28 22:03:00,23.3,22.0,30.27,NW,325,2.0,5.0,95,0.00,,,0.03,weatherlink.com 1.10,2013-01-29 06:03:00,
2013-01-28 22:18:00,23.0,22.0,30.27,NW,325,0.0,3.0,95,0.00,,,0.03,weatherlink.com 1.10,2013-01-29 06:18:00,
2013-01-28 22:33:00,22.5,21.0,30.27,NW,325,1.0,3.0,94,0.00,,,0.03,weatherlink.com 1.10,2013-01-29 06:33:00,
2013-01-28 22:48:00,22.4,21.0,30.28,NW,325,1.0,5.0,95,0.00,,,0.03,weatherlink.com 1.10,2013-01-29 06:48:00,